sensor_id;sensor_type;location;lat;lon;timestamp;pressure;altitude;pressure_sealevel;temperature;humidity
75759;BME280;64371;47.566;19.086;2023-04-24T00:02:29;99666.06;;;12.63;57.41
75759;BME280;64371;47.566;19.086;2023-04-24T00:05:33;99672.47;;;12.71;56.99
75759;BME280;64371;47.566;19.086;2023-04-24T00:08:36;99664.97;;;12.64;56.85
75759;BME280;64371;47.566;19.086;2023-04-24T00:11:38;99667.13;;;12.54;57.14
75759;BME280;64371;47.566;19.086;2023-04-24T00:14:40;99667.59;;;12.56;57.49
75759;BME280;64371;47.566;19.086;2023-04-24T00:17:43;99665.75;;;12.65;57.36
75759;BME280;64371;47.566;19.086;2023-04-24T00:20:45;99662.97;;;12.70;56.82
75759;BME280;64371;47.566;19.086;2023-04-24T00:23:48;99672.31;;;12.76;56.71
75759;BME280;64371;47.566;19.086;2023-04-24T00:26:50;99669.03;;;12.79;56.04
75759;BME280;64371;47.566;19.086;2023-04-24T00:29:53;99669.03;;;12.71;55.81
75759;BME280;64371;47.566;19.086;2023-04-24T00:32:55;99665.75;;;12.65;57.00
75759;BME280;64371;47.566;19.086;2023-04-24T00:35:58;99670.56;;;12.72;57.38
75759;BME280;64371;47.566;19.086;2023-04-24T00:39:01;99667.97;;;12.89;56.00
75759;BME280;64371;47.566;19.086;2023-04-24T00:42:03;99660.66;;;12.86;56.09
75759;BME280;64371;47.566;19.086;2023-04-24T00:45:07;99644.31;;;12.92;55.90
75759;BME280;64371;47.566;19.086;2023-04-24T00:48:11;99638.09;;;12.97;55.81
75759;BME280;64371;47.566;19.086;2023-04-24T00:51:14;99646.53;;;13.07;55.45
75759;BME280;64371;47.566;19.086;2023-04-24T00:54:17;99652.44;;;13.13;55.67
75759;BME280;64371;47.566;19.086;2023-04-24T00:57:20;99652.59;;;13.16;55.57
75759;BME280;64371;47.566;19.086;2023-04-24T01:00:22;99647.78;;;13.10;55.77
75759;BME280;64371;47.566;19.086;2023-04-24T01:03:29;99646.38;;;13.12;55.73
75759;BME280;64371;47.566;19.086;2023-04-24T01:06:34;99645.28;;;13.13;55.63
75759;BME280;64371;47.566;19.086;2023-04-24T01:09:38;99646.81;;;13.23;54.95
75759;BME280;64371;47.566;19.086;2023-04-24T01:12:42;99655.03;;;13.56;53.91
75759;BME280;64371;47.566;19.086;2023-04-24T01:15:47;99645.84;;;13.53;53.52
75759;BME280;64371;47.566;19.086;2023-04-24T01:18:49;99647.41;;;13.63;52.78
75759;BME280;64371;47.566;19.086;2023-04-24T01:21:54;99648.47;;;13.70;52.56
75759;BME280;64371;47.566;19.086;2023-04-24T01:25:00;99647.81;;;13.73;52.39
75759;BME280;64371;47.566;19.086;2023-04-24T01:28:04;99639.53;;;13.92;51.89
75759;BME280;64371;47.566;19.086;2023-04-24T01:31:07;99632.34;;;13.92;51.83
75759;BME280;64371;47.566;19.086;2023-04-24T01:34:10;99623.75;;;13.95;51.84
75759;BME280;64371;47.566;19.086;2023-04-24T01:37:12;99632.63;;;14.00;51.40
75759;BME280;64371;47.566;19.086;2023-04-24T01:40:15;99619.84;;;14.02;51.38
75759;BME280;64371;47.566;19.086;2023-04-24T01:43:17;99619.41;;;13.91;51.34
75759;BME280;64371;47.566;19.086;2023-04-24T01:46:20;99628.03;;;13.79;52.02
75759;BME280;64371;47.566;19.086;2023-04-24T01:49:22;99627.34;;;13.91;51.69
75759;BME280;64371;47.566;19.086;2023-04-24T01:52:25;99617.44;;;13.79;52.04
75759;BME280;64371;47.566;19.086;2023-04-24T01:55:28;99609.47;;;13.79;52.42
75759;BME280;64371;47.566;19.086;2023-04-24T01:58:30;99605.75;;;13.80;52.13
75759;BME280;64371;47.566;19.086;2023-04-24T02:01:34;99591.25;;;12.97;61.03
75759;BME280;64371;47.566;19.086;2023-04-24T02:04:39;99587.28;;;12.18;64.54
75759;BME280;64371;47.566;19.086;2023-04-24T02:07:42;99589.00;;;11.74;65.96
75759;BME280;64371;47.566;19.086;2023-04-24T02:10:44;99587.13;;;11.75;66.74
75759;BME280;64371;47.566;19.086;2023-04-24T02:13:47;99580.06;;;11.62;70.08
75759;BME280;64371;47.566;19.086;2023-04-24T02:16:50;99579.72;;;11.55;70.98
75759;BME280;64371;47.566;19.086;2023-04-24T02:19:53;99564.28;;;11.70;67.88
75759;BME280;64371;47.566;19.086;2023-04-24T02:22:55;99569.78;;;11.52;70.71
75759;BME280;64371;47.566;19.086;2023-04-24T02:25:57;99570.09;;;11.50;71.96
75759;BME280;64371;47.566;19.086;2023-04-24T02:29:00;99562.50;;;11.57;71.52
75759;BME280;64371;47.566;19.086;2023-04-24T02:32:02;99562.63;;;11.52;73.26
75759;BME280;64371;47.566;19.086;2023-04-24T02:35:05;99565.41;;;11.47;75.68
75759;BME280;64371;47.566;19.086;2023-04-24T02:38:08;99558.28;;;11.48;73.93
75759;BME280;64371;47.566;19.086;2023-04-24T02:41:10;99554.25;;;11.50;73.73
75759;BME280;64371;47.566;19.086;2023-04-24T02:44:13;99553.97;;;11.60;75.36
75759;BME280;64371;47.566;19.086;2023-04-24T02:47:15;99556.59;;;11.60;77.76
75759;BME280;64371;47.566;19.086;2023-04-24T02:50:17;99556.97;;;11.67;75.16
75759;BME280;64371;47.566;19.086;2023-04-24T02:53:19;99556.19;;;11.67;76.51
75759;BME280;64371;47.566;19.086;2023-04-24T02:56:22;99555.09;;;11.68;75.17
75759;BME280;64371;47.566;19.086;2023-04-24T02:59:24;99558.34;;;11.65;78.56
75759;BME280;64371;47.566;19.086;2023-04-24T03:02:29;99548.06;;;11.63;78.12
75759;BME280;64371;47.566;19.086;2023-04-24T03:05:32;99557.63;;;11.73;78.90
75759;BME280;64371;47.566;19.086;2023-04-24T03:08:34;99559.41;;;11.64;77.77
75759;BME280;64371;47.566;19.086;2023-04-24T03:11:37;99556.25;;;11.53;77.43
75759;BME280;64371;47.566;19.086;2023-04-24T03:14:39;99552.22;;;11.47;76.52
75759;BME280;64371;47.566;19.086;2023-04-24T03:17:41;99542.13;;;11.49;77.33
75759;BME280;64371;47.566;19.086;2023-04-24T03:20:46;99558.09;;;11.44;77.38
75759;BME280;64371;47.566;19.086;2023-04-24T03:23:49;99547.84;;;11.43;77.38
75759;BME280;64371;47.566;19.086;2023-04-24T03:26:52;99542.81;;;11.32;78.38
75759;BME280;64371;47.566;19.086;2023-04-24T03:30:20;99543.66;;;11.19;78.96
75759;BME280;64371;47.566;19.086;2023-04-24T03:33:30;99548.59;;;11.12;78.76
75759;BME280;64371;47.566;19.086;2023-04-24T03:36:36;99540.28;;;11.19;77.26
75759;BME280;64371;47.566;19.086;2023-04-24T03:39:41;99539.19;;;11.20;78.93
75759;BME280;64371;47.566;19.086;2023-04-24T03:42:44;99549.34;;;11.35;78.76
75759;BME280;64371;47.566;19.086;2023-04-24T03:45:47;99551.69;;;11.37;79.11
75759;BME280;64371;47.566;19.086;2023-04-24T03:48:50;99545.34;;;11.38;77.44
75759;BME280;64371;47.566;19.086;2023-04-24T03:51:54;99544.22;;;11.39;78.06
75759;BME280;64371;47.566;19.086;2023-04-24T03:54:59;99539.09;;;11.33;78.78
75759;BME280;64371;47.566;19.086;2023-04-24T03:58:03;99527.03;;;11.10;78.32
75759;BME280;64371;47.566;19.086;2023-04-24T04:01:06;99531.97;;;11.12;79.07
75759;BME280;64371;47.566;19.086;2023-04-24T04:04:23;99542.63;;;11.29;77.31
75759;BME280;64371;47.566;19.086;2023-04-24T04:07:25;99552.72;;;11.27;78.17
75759;BME280;64371;47.566;19.086;2023-04-24T04:10:28;99548.81;;;11.24;76.22
75759;BME280;64371;47.566;19.086;2023-04-24T04:13:31;99542.00;;;11.23;75.93
75759;BME280;64371;47.566;19.086;2023-04-24T04:16:33;99549.72;;;11.20;75.46
75759;BME280;64371;47.566;19.086;2023-04-24T04:19:39;99545.34;;;11.15;74.26
75759;BME280;64371;47.566;19.086;2023-04-24T04:22:42;99540.63;;;11.26;73.89
75759;BME280;64371;47.566;19.086;2023-04-24T04:25:51;99548.88;;;11.33;73.44
75759;BME280;64371;47.566;19.086;2023-04-24T04:28:57;99540.09;;;11.15;73.96
75759;BME280;64371;47.566;19.086;2023-04-24T04:32:00;99540.13;;;11.24;74.20
75759;BME280;64371;47.566;19.086;2023-04-24T04:35:03;99537.41;;;11.38;74.80
75759;BME280;64371;47.566;19.086;2023-04-24T04:38:08;99530.06;;;11.65;72.07
75759;BME280;64371;47.566;19.086;2023-04-24T04:41:25;99525.56;;;11.66;71.94
75759;BME280;64371;47.566;19.086;2023-04-24T04:44:28;99516.41;;;11.63;70.99
75759;BME280;64371;47.566;19.086;2023-04-24T04:47:32;99534.19;;;11.80;71.88
75759;BME280;64371;47.566;19.086;2023-04-24T04:50:36;99531.41;;;11.85;72.25
75759;BME280;64371;47.566;19.086;2023-04-24T04:53:42;99539.19;;;11.90;70.15
75759;BME280;64371;47.566;19.086;2023-04-24T04:56:44;99541.53;;;11.91;70.67
75759;BME280;64371;47.566;19.086;2023-04-24T04:59:47;99532.06;;;11.99;71.21
75759;BME280;64371;47.566;19.086;2023-04-24T05:02:59;99533.66;;;12.17;69.90
75759;BME280;64371;47.566;19.086;2023-04-24T05:06:21;99525.72;;;12.09;70.42
75759;BME280;64371;47.566;19.086;2023-04-24T05:09:26;99511.59;;;12.13;71.03
75759;BME280;64371;47.566;19.086;2023-04-24T05:12:34;99517.22;;;12.37;70.34
75759;BME280;64371;47.566;19.086;2023-04-24T05:15:38;99522.66;;;12.49;71.32
75759;BME280;64371;47.566;19.086;2023-04-24T05:18:40;99519.38;;;12.35;69.77
75759;BME280;64371;47.566;19.086;2023-04-24T05:21:45;99520.63;;;12.46;70.12
75759;BME280;64371;47.566;19.086;2023-04-24T05:24:50;99519.38;;;12.52;69.41
75759;BME280;64371;47.566;19.086;2023-04-24T05:28:05;99530.41;;;12.80;69.90
75759;BME280;64371;47.566;19.086;2023-04-24T05:31:08;99518.91;;;12.85;69.39
75759;BME280;64371;47.566;19.086;2023-04-24T05:34:11;99522.47;;;13.06;68.17
75759;BME280;64371;47.566;19.086;2023-04-24T05:37:17;99521.53;;;13.57;67.10
75759;BME280;64371;47.566;19.086;2023-04-24T05:40:20;99515.72;;;13.25;67.60
75759;BME280;64371;47.566;19.086;2023-04-24T05:43:23;99527.44;;;13.16;68.16
75759;BME280;64371;47.566;19.086;2023-04-24T05:46:25;99533.50;;;13.16;69.21
75759;BME280;64371;47.566;19.086;2023-04-24T05:49:30;99536.31;;;13.20;69.82
75759;BME280;64371;47.566;19.086;2023-04-24T05:52:32;99527.47;;;12.90;69.62
75759;BME280;64371;47.566;19.086;2023-04-24T05:55:38;99529.13;;;13.03;72.13
75759;BME280;64371;47.566;19.086;2023-04-24T05:58:40;99530.41;;;12.97;70.38
75759;BME280;64371;47.566;19.086;2023-04-24T06:01:43;99527.28;;;12.87;70.79
75759;BME280;64371;47.566;19.086;2023-04-24T06:04:51;99530.22;;;13.19;71.18
75759;BME280;64371;47.566;19.086;2023-04-24T06:07:54;99531.50;;;13.60;70.88
75759;BME280;64371;47.566;19.086;2023-04-24T06:10:58;99531.59;;;14.01;67.46
75759;BME280;64371;47.566;19.086;2023-04-24T06:14:02;99531.50;;;14.18;65.39
75759;BME280;64371;47.566;19.086;2023-04-24T06:17:30;99530.94;;;14.54;62.74
75759;BME280;64371;47.566;19.086;2023-04-24T06:20:33;99535.47;;;14.33;62.95
75759;BME280;64371;47.566;19.086;2023-04-24T06:23:38;99528.94;;;14.51;62.36
75759;BME280;64371;47.566;19.086;2023-04-24T06:26:41;99543.63;;;14.69;61.20
75759;BME280;64371;47.566;19.086;2023-04-24T06:29:43;99539.25;;;15.06;60.77
75759;BME280;64371;47.566;19.086;2023-04-24T06:32:46;99532.41;;;15.29;59.96
75759;BME280;64371;47.566;19.086;2023-04-24T06:35:50;99528.59;;;14.73;61.12
75759;BME280;64371;47.566;19.086;2023-04-24T06:38:52;99526.97;;;14.19;63.70
75759;BME280;64371;47.566;19.086;2023-04-24T06:41:54;99530.19;;;14.04;66.12
75759;BME280;64371;47.566;19.086;2023-04-24T06:44:59;99530.78;;;13.80;67.33
75759;BME280;64371;47.566;19.086;2023-04-24T06:48:02;99519.16;;;13.93;66.82
75759;BME280;64371;47.566;19.086;2023-04-24T06:51:04;99532.63;;;14.38;65.52
75759;BME280;64371;47.566;19.086;2023-04-24T06:54:07;99520.53;;;14.49;64.64
75759;BME280;64371;47.566;19.086;2023-04-24T06:57:10;99527.25;;;14.46;65.25
75759;BME280;64371;47.566;19.086;2023-04-24T07:00:13;99533.50;;;14.83;64.62
75759;BME280;64371;47.566;19.086;2023-04-24T07:03:15;99537.78;;;14.96;62.91
75759;BME280;64371;47.566;19.086;2023-04-24T07:06:18;99542.19;;;14.72;63.23
75759;BME280;64371;47.566;19.086;2023-04-24T07:09:24;99537.19;;;14.58;64.25
75759;BME280;64371;47.566;19.086;2023-04-24T07:12:28;99534.03;;;14.56;64.31
75759;BME280;64371;47.566;19.086;2023-04-24T07:15:30;99524.06;;;14.41;64.60
75759;BME280;64371;47.566;19.086;2023-04-24T07:18:34;99523.38;;;14.44;64.32
75759;BME280;64371;47.566;19.086;2023-04-24T07:21:36;99528.38;;;14.45;64.51
75759;BME280;64371;47.566;19.086;2023-04-24T07:24:39;99524.53;;;14.76;63.66
75759;BME280;64371;47.566;19.086;2023-04-24T07:27:42;99530.91;;;14.63;64.27
75759;BME280;64371;47.566;19.086;2023-04-24T07:30:45;99524.41;;;14.51;65.22
75759;BME280;64371;47.566;19.086;2023-04-24T07:33:48;99519.84;;;14.40;65.62
75759;BME280;64371;47.566;19.086;2023-04-24T07:36:51;99536.91;;;14.72;64.84
75759;BME280;64371;47.566;19.086;2023-04-24T07:39:54;99534.44;;;14.99;64.19
75759;BME280;64371;47.566;19.086;2023-04-24T07:42:57;99525.88;;;14.82;64.58
75759;BME280;64371;47.566;19.086;2023-04-24T07:45:59;99530.03;;;15.03;64.06
75759;BME280;64371;47.566;19.086;2023-04-24T07:49:02;99520.28;;;15.40;63.52
75759;BME280;64371;47.566;19.086;2023-04-24T07:52:14;99517.97;;;15.87;61.78
75759;BME280;64371;47.566;19.086;2023-04-24T07:55:17;99513.78;;;15.98;61.83
75759;BME280;64371;47.566;19.086;2023-04-24T07:58:22;99510.84;;;16.67;59.34
75759;BME280;64371;47.566;19.086;2023-04-24T08:01:25;99520.00;;;16.82;59.13
75759;BME280;64371;47.566;19.086;2023-04-24T08:04:27;99519.22;;;16.81;58.11
75759;BME280;64371;47.566;19.086;2023-04-24T08:07:31;99519.72;;;17.14;57.57
75759;BME280;64371;47.566;19.086;2023-04-24T08:10:33;99511.78;;;16.47;59.57
75759;BME280;64371;47.566;19.086;2023-04-24T08:13:36;99524.56;;;17.87;55.80
75759;BME280;64371;47.566;19.086;2023-04-24T08:16:38;99528.91;;;18.65;54.08
75759;BME280;64371;47.566;19.086;2023-04-24T08:19:41;99520.00;;;17.56;56.23
75759;BME280;64371;47.566;19.086;2023-04-24T08:22:49;99506.94;;;17.36;57.64
75759;BME280;64371;47.566;19.086;2023-04-24T08:25:53;99517.38;;;18.61;54.10
75759;BME280;64371;47.566;19.086;2023-04-24T08:28:56;99525.53;;;19.09;52.47
75759;BME280;64371;47.566;19.086;2023-04-24T08:31:58;99511.41;;;18.13;55.31
75759;BME280;64371;47.566;19.086;2023-04-24T08:35:02;99514.16;;;17.66;56.53
75759;BME280;64371;47.566;19.086;2023-04-24T08:38:05;99510.47;;;17.24;57.91
75759;BME280;64371;47.566;19.086;2023-04-24T08:41:09;99525.41;;;17.44;57.49
75759;BME280;64371;47.566;19.086;2023-04-24T08:44:12;99528.28;;;17.82;57.18
75759;BME280;64371;47.566;19.086;2023-04-24T08:47:16;99519.53;;;18.36;54.84
75759;BME280;64371;47.566;19.086;2023-04-24T08:50:19;99508.56;;;17.71;56.37
75759;BME280;64371;47.566;19.086;2023-04-24T08:53:22;99514.47;;;18.31;55.47
75759;BME280;64371;47.566;19.086;2023-04-24T08:56:27;99520.66;;;18.92;52.40
75759;BME280;64371;47.566;19.086;2023-04-24T08:59:31;99519.81;;;18.88;53.16
75759;BME280;64371;47.566;19.086;2023-04-24T09:02:34;99507.00;;;18.75;52.71
75759;BME280;64371;47.566;19.086;2023-04-24T09:10:49;99501.41;;;18.26;54.36
75759;BME280;64371;47.566;19.086;2023-04-24T09:13:53;99507.28;;;17.50;56.08
75759;BME280;64371;47.566;19.086;2023-04-24T09:16:56;99493.84;;;18.47;53.58
75759;BME280;64371;47.566;19.086;2023-04-24T09:19:58;99501.53;;;18.90;51.16
75759;BME280;64371;47.566;19.086;2023-04-24T09:23:01;99490.91;;;18.17;53.00
75759;BME280;64371;47.566;19.086;2023-04-24T09:26:03;99490.94;;;18.36;52.11
75759;BME280;64371;47.566;19.086;2023-04-24T09:29:16;99473.75;;;18.53;51.94
75759;BME280;64371;47.566;19.086;2023-04-24T09:32:20;99475.44;;;18.61;50.91
75759;BME280;64371;47.566;19.086;2023-04-24T09:35:24;99487.16;;;18.76;51.03
75759;BME280;64371;47.566;19.086;2023-04-24T09:38:35;99481.00;;;18.94;50.72
75759;BME280;64371;47.566;19.086;2023-04-24T09:41:47;99469.94;;;19.38;49.16
75759;BME280;64371;47.566;19.086;2023-04-24T09:44:50;99461.84;;;19.57;48.47
75759;BME280;64371;47.566;19.086;2023-04-24T09:48:07;99459.56;;;19.85;45.71
75759;BME280;64371;47.566;19.086;2023-04-24T09:51:11;99462.41;;;20.59;44.45
75759;BME280;64371;47.566;19.086;2023-04-24T09:54:16;99459.59;;;20.18;44.72
75759;BME280;64371;47.566;19.086;2023-04-24T09:57:19;99471.03;;;19.85;46.52
75759;BME280;64371;47.566;19.086;2023-04-24T10:03:25;99452.72;;;19.88;45.92
75759;BME280;64371;47.566;19.086;2023-04-24T10:06:34;99463.25;;;19.77;46.47
75759;BME280;64371;47.566;19.086;2023-04-24T10:09:36;99457.56;;;19.30;47.17
75759;BME280;64371;47.566;19.086;2023-04-24T10:12:39;99456.69;;;19.22;48.36
75759;BME280;64371;47.566;19.086;2023-04-24T10:15:42;99455.56;;;19.00;47.68
75759;BME280;64371;47.566;19.086;2023-04-24T10:18:45;99462.78;;;19.00;47.60
75759;BME280;64371;47.566;19.086;2023-04-24T10:21:48;99451.81;;;19.28;46.40
75759;BME280;64371;47.566;19.086;2023-04-24T10:24:52;99461.84;;;19.11;47.32
75759;BME280;64371;47.566;19.086;2023-04-24T10:27:55;99453.88;;;18.70;48.53
75759;BME280;64371;47.566;19.086;2023-04-24T10:31:01;99461.75;;;18.85;48.85
75759;BME280;64371;47.566;19.086;2023-04-24T10:34:05;99457.03;;;19.20;47.66
75759;BME280;64371;47.566;19.086;2023-04-24T10:37:10;99457.34;;;19.38;47.68
75759;BME280;64371;47.566;19.086;2023-04-24T10:40:17;99459.88;;;19.31;48.01
75759;BME280;64371;47.566;19.086;2023-04-24T10:43:21;99451.94;;;19.12;48.74
75759;BME280;64371;47.566;19.086;2023-04-24T10:46:29;99446.47;;;19.05;49.18
75759;BME280;64371;47.566;19.086;2023-04-24T10:49:32;99443.25;;;18.73;49.77
75759;BME280;64371;47.566;19.086;2023-04-24T10:52:45;99455.97;;;19.02;49.11
75759;BME280;64371;47.566;19.086;2023-04-24T10:55:50;99456.25;;;18.55;50.36
75759;BME280;64371;47.566;19.086;2023-04-24T10:58:53;99441.41;;;18.77;49.75
75759;BME280;64371;47.566;19.086;2023-04-24T11:01:55;99453.13;;;18.73;49.90
75759;BME280;64371;47.566;19.086;2023-04-24T11:05:03;99446.19;;;18.68;50.13
75759;BME280;64371;47.566;19.086;2023-04-24T11:08:21;99448.91;;;18.49;51.10
75759;BME280;64371;47.566;19.086;2023-04-24T11:11:28;99455.63;;;18.43;51.53
75759;BME280;64371;47.566;19.086;2023-04-24T11:18:00;99435.75;;;18.40;52.07
75759;BME280;64371;47.566;19.086;2023-04-24T11:21:10;99440.31;;;18.40;52.55
75759;BME280;64371;47.566;19.086;2023-04-24T11:24:38;99442.41;;;18.69;52.06
75759;BME280;64371;47.566;19.086;2023-04-24T11:27:47;99438.72;;;18.54;52.02
75759;BME280;64371;47.566;19.086;2023-04-24T11:30:50;99446.22;;;19.13;50.33
75759;BME280;64371;47.566;19.086;2023-04-24T11:33:54;99442.53;;;19.21;50.15
75759;BME280;64371;47.566;19.086;2023-04-24T11:36:57;99433.44;;;19.49;49.78
75759;BME280;64371;47.566;19.086;2023-04-24T11:40:00;99426.56;;;19.74;49.37
75759;BME280;64371;47.566;19.086;2023-04-24T11:43:03;99425.84;;;19.28;49.99
75759;BME280;64371;47.566;19.086;2023-04-24T11:46:16;99420.75;;;18.74;51.26
75759;BME280;64371;47.566;19.086;2023-04-24T11:49:19;99424.06;;;18.68;51.56
75759;BME280;64371;47.566;19.086;2023-04-24T11:52:21;99414.34;;;18.79;51.32
75759;BME280;64371;47.566;19.086;2023-04-24T11:55:28;99397.19;;;18.80;51.49
75759;BME280;64371;47.566;19.086;2023-04-24T11:58:38;99406.13;;;19.13;50.74
75759;BME280;64371;47.566;19.086;2023-04-24T12:01:45;99412.44;;;19.47;49.82
75759;BME280;64371;47.566;19.086;2023-04-24T12:04:48;99393.47;;;19.85;49.59
75759;BME280;64371;47.566;19.086;2023-04-24T12:07:51;99390.81;;;19.89;48.91
75759;BME280;64371;47.566;19.086;2023-04-24T12:10:54;99384.44;;;19.67;49.79
75759;BME280;64371;47.566;19.086;2023-04-24T12:13:56;99383.66;;;19.97;49.17
75759;BME280;64371;47.566;19.086;2023-04-24T12:16:58;99379.41;;;19.36;50.54
75759;BME280;64371;47.566;19.086;2023-04-24T12:20:06;99383.91;;;19.32;50.78
75759;BME280;64371;47.566;19.086;2023-04-24T12:23:09;99369.88;;;19.12;51.85
75759;BME280;64371;47.566;19.086;2023-04-24T12:26:16;99377.69;;;18.76;52.62
75759;BME280;64371;47.566;19.086;2023-04-24T12:29:22;99353.03;;;18.40;54.74
75759;BME280;64371;47.566;19.086;2023-04-24T12:32:25;99363.38;;;18.23;56.80
75759;BME280;64371;47.566;19.086;2023-04-24T12:35:31;99357.34;;;18.07;56.88
75759;BME280;64371;47.566;19.086;2023-04-24T12:38:34;99357.53;;;18.17;57.21
75759;BME280;64371;47.566;19.086;2023-04-24T12:41:56;99347.28;;;18.00;55.87
75759;BME280;64371;47.566;19.086;2023-04-24T12:45:05;99334.19;;;17.92;55.10
75759;BME280;64371;47.566;19.086;2023-04-24T12:48:28;99346.53;;;18.19;55.01
75759;BME280;64371;47.566;19.086;2023-04-24T12:51:31;99347.25;;;18.38;55.21
75759;BME280;64371;47.566;19.086;2023-04-24T12:54:33;99353.75;;;18.18;57.68
75759;BME280;64371;47.566;19.086;2023-04-24T12:57:39;99341.13;;;17.96;61.55
75759;BME280;64371;47.566;19.086;2023-04-24T13:00:42;99334.00;;;17.46;62.79
75759;BME280;64371;47.566;19.086;2023-04-24T13:03:45;99331.47;;;17.34;63.51
75759;BME280;64371;47.566;19.086;2023-04-24T13:06:48;99334.28;;;17.25;63.96
75759;BME280;64371;47.566;19.086;2023-04-24T13:09:51;99343.44;;;17.09;66.17
75759;BME280;64371;47.566;19.086;2023-04-24T13:12:54;99330.22;;;16.97;67.52
75759;BME280;64371;47.566;19.086;2023-04-24T13:15:57;99335.03;;;16.91;65.96
75759;BME280;64371;47.566;19.086;2023-04-24T13:18:59;99320.84;;;17.03;68.12
75759;BME280;64371;47.566;19.086;2023-04-24T13:22:01;99324.94;;;17.16;66.45
75759;BME280;64371;47.566;19.086;2023-04-24T13:25:04;99316.84;;;17.28;65.03
75759;BME280;64371;47.566;19.086;2023-04-24T13:28:08;99316.22;;;17.35;64.96
75759;BME280;64371;47.566;19.086;2023-04-24T13:31:10;99309.66;;;17.48;63.89
75759;BME280;64371;47.566;19.086;2023-04-24T13:34:13;99309.66;;;17.48;63.49
75759;BME280;64371;47.566;19.086;2023-04-24T13:37:15;99301.56;;;17.44;64.01
75759;BME280;64371;47.566;19.086;2023-04-24T13:40:18;99312.63;;;17.27;65.75
75759;BME280;64371;47.566;19.086;2023-04-24T13:43:20;99294.22;;;17.03;66.19
75759;BME280;64371;47.566;19.086;2023-04-24T13:46:23;99297.16;;;16.98;67.38
75759;BME280;64371;47.566;19.086;2023-04-24T13:49:26;99303.75;;;16.88;66.99
75759;BME280;64371;47.566;19.086;2023-04-24T13:52:28;99282.44;;;16.53;68.91
75759;BME280;64371;47.566;19.086;2023-04-24T13:55:31;99269.75;;;16.19;69.71
75759;BME280;64371;47.566;19.086;2023-04-24T13:58:35;99296.41;;;16.07;71.56
75759;BME280;64371;47.566;19.086;2023-04-24T14:01:39;99301.63;;;16.04;72.39
75759;BME280;64371;47.566;19.086;2023-04-24T14:04:41;99314.97;;;15.91;73.22
75759;BME280;64371;47.566;19.086;2023-04-24T14:07:44;99328.56;;;15.62;75.50
75759;BME280;64371;47.566;19.086;2023-04-24T14:10:47;99339.66;;;15.64;76.00
75759;BME280;64371;47.566;19.086;2023-04-24T14:13:49;99335.66;;;15.70;76.30
75759;BME280;64371;47.566;19.086;2023-04-24T14:16:52;99347.09;;;15.59;76.20
75759;BME280;64371;47.566;19.086;2023-04-24T14:19:54;99350.97;;;15.37;78.37
75759;BME280;64371;47.566;19.086;2023-04-24T14:22:58;99353.00;;;15.16;79.63
75759;BME280;64371;47.566;19.086;2023-04-24T14:26:01;99355.41;;;14.85;81.74
75759;BME280;64371;47.566;19.086;2023-04-24T14:29:03;99350.66;;;14.90;82.19
75759;BME280;64371;47.566;19.086;2023-04-24T14:32:15;99355.66;;;15.04;81.98
75759;BME280;64371;47.566;19.086;2023-04-24T14:35:18;99353.66;;;15.13;81.35
75759;BME280;64371;47.566;19.086;2023-04-24T14:38:22;99361.47;;;15.21;81.33
75759;BME280;64371;47.566;19.086;2023-04-24T14:41:25;99362.03;;;15.27;80.98
75759;BME280;64371;47.566;19.086;2023-04-24T14:44:27;99368.78;;;15.12;81.54
75759;BME280;64371;47.566;19.086;2023-04-24T14:47:29;99366.47;;;15.23;83.11
75759;BME280;64371;47.566;19.086;2023-04-24T14:50:32;99373.84;;;15.66;79.37
75759;BME280;64371;47.566;19.086;2023-04-24T14:53:35;99368.75;;;15.73;77.88
75759;BME280;64371;47.566;19.086;2023-04-24T14:56:37;99375.34;;;15.91;75.99
75759;BME280;64371;47.566;19.086;2023-04-24T14:59:42;99375.22;;;16.27;77.86
75759;BME280;64371;47.566;19.086;2023-04-24T15:02:45;99367.50;;;16.38;77.92
75759;BME280;64371;47.566;19.086;2023-04-24T15:05:48;99376.25;;;16.38;75.85
75759;BME280;64371;47.566;19.086;2023-04-24T15:08:50;99370.47;;;16.21;76.58
75759;BME280;64371;47.566;19.086;2023-04-24T15:11:52;99368.78;;;16.01;78.25
75759;BME280;64371;47.566;19.086;2023-04-24T15:14:55;99372.38;;;15.80;77.07
75759;BME280;64371;47.566;19.086;2023-04-24T15:17:57;99367.56;;;15.98;75.17
75759;BME280;64371;47.566;19.086;2023-04-24T15:21:00;99367.75;;;16.33;75.75
75759;BME280;64371;47.566;19.086;2023-04-24T15:24:02;99356.44;;;16.36;73.18
75759;BME280;64371;47.566;19.086;2023-04-24T15:27:09;99352.91;;;16.32;73.16
75759;BME280;64371;47.566;19.086;2023-04-24T15:30:13;99363.34;;;15.97;74.93
75759;BME280;64371;47.566;19.086;2023-04-24T15:33:15;99357.63;;;16.11;72.24
75759;BME280;64371;47.566;19.086;2023-04-24T15:36:18;99367.41;;;15.79;73.98
75759;BME280;64371;47.566;19.086;2023-04-24T15:39:23;99372.28;;;15.77;74.80
75759;BME280;64371;47.566;19.086;2023-04-24T15:42:26;99366.00;;;15.69;72.64
75759;BME280;64371;47.566;19.086;2023-04-24T15:45:29;99370.53;;;15.69;74.16
75759;BME280;64371;47.566;19.086;2023-04-24T15:48:32;99370.16;;;15.82;73.48
75759;BME280;64371;47.566;19.086;2023-04-24T15:51:34;99367.97;;;15.72;73.43
75759;BME280;64371;47.566;19.086;2023-04-24T15:54:36;99372.44;;;15.56;73.86
75759;BME280;64371;47.566;19.086;2023-04-24T15:57:40;99368.00;;;15.48;73.16
75759;BME280;64371;47.566;19.086;2023-04-24T16:00:44;99374.03;;;15.45;73.08
75759;BME280;64371;47.566;19.086;2023-04-24T16:03:47;99370.78;;;15.40;73.76
75759;BME280;64371;47.566;19.086;2023-04-24T16:06:50;99371.09;;;15.50;75.17
75759;BME280;64371;47.566;19.086;2023-04-24T16:09:52;99370.13;;;15.31;73.91
75759;BME280;64371;47.566;19.086;2023-04-24T16:12:55;99361.59;;;15.25;72.29
75759;BME280;64371;47.566;19.086;2023-04-24T16:15:57;99378.53;;;14.96;74.62